Time;durP1;ratioP1;P1;durP2;ratioP2;P2;SDS_P1;SDS_P2;PMS_P1;PMS_P2;Temp;Humidity;BMP_temperature;BMP_pressure;BME280_temperature;BME280_humidity;BME280_pressure;Samples;Min_cycle;Max_cycle;Signal;HPM_P1;HPM_P2
2022/06/02 00:00:52;;;;;;;;;;;;;;;9.94;71.76;100586.00;5092659;28;19928;-53
2022/06/02 00:03:25;;;;;;;;;;;;;;;9.88;71.51;100587.22;5092988;28;19924;-52
2022/06/02 00:05:57;;;;;;;;;;;;;;;9.80;72.04;100589.88;5092779;28;20369;-51
2022/06/02 00:08:30;;;;;;;;;;;;;;;9.75;72.49;100596.38;5088974;28;19925;-51
2022/06/02 00:11:03;;;;;;;;;;;;;;;9.72;72.36;100597.81;5092407;28;19931;-50
2022/06/02 00:13:34;;;;;;;;;;;;;;;9.71;72.44;100598.94;5092819;28;19932;-52
2022/06/02 00:16:06;;;;;;;;;;;;;;;9.68;72.63;100599.56;5092608;28;19924;-52
2022/06/02 00:18:40;;;;;;;;;;;;;;;9.68;72.34;100602.34;5092775;28;19931;-51
2022/06/02 00:21:18;;;;;;;;;;;;;;;9.66;72.23;100610.16;5093081;28;19924;-51
2022/06/02 00:23:48;;;;;;;;;;;;;;;9.63;72.28;100607.97;5091174;28;19924;-51
2022/06/02 00:26:22;;;;;;;;;;;;;;;9.62;72.18;100609.13;5092799;28;19924;-52
2022/06/02 00:28:57;;;;;;;;;;;;;;;9.57;71.80;100606.41;5073279;28;20308;-52
2022/06/02 00:31:31;;;;;;;;;;;;;;;9.55;71.65;100612.28;5072260;28;19925;-50
2022/06/02 00:34:03;;;;;;;;;;;;;;;9.48;72.27;100605.47;5072278;28;19925;-50
2022/06/02 00:36:33;;;;;;;;;;;;;;;9.43;72.62;100611.09;5072150;28;20409;-52
2022/06/02 00:39:00;;;;;;;;;;;;;;;9.39;72.54;100608.13;5089768;28;20984;-53
2022/06/02 00:41:32;;;;;;;;;;;;;;;9.40;72.49;100611.72;5092742;28;20296;-52
2022/06/02 00:44:04;;;;;;;;;;;;;;;9.39;72.81;100612.84;5092231;28;20289;-51
2022/06/02 00:46:49;;;;;;;;;;;;;;;9.30;72.84;100609.91;5092785;28;19924;-51
2022/06/02 00:49:19;;;;;;;;;;;;;;;9.30;72.66;100615.47;5088669;28;19928;-51
2022/06/02 00:51:50;;;;;;;;;;;;;;;9.28;72.54;100613.03;5067582;28;19929;-52
2022/06/02 00:57:32;;;;;;;;;;;;;;;9.28;72.83;100617.72;5098748;28;19924;-50
2022/06/02 01:00:08;;;;;;;;;;;;;;;9.18;73.43;100620.69;5095565;28;19924;-50
2022/06/02 01:02:41;;;;;;;;;;;;;;;9.22;72.83;100628.13;5095915;28;19924;-51
2022/06/02 01:05:09;;;;;;;;;;;;;;;9.16;73.11;100620.16;5096316;28;19931;-51
2022/06/02 01:07:42;;;;;;;;;;;;;;;9.11;73.06;100630.22;5119375;27;19936;-50
2022/06/02 01:10:22;;;;;;;;;;;;;;;9.09;73.27;100631.63;5136616;27;19938;-50
2022/06/02 01:13:00;;;;;;;;;;;;;;;9.05;73.45;100638.91;5136710;27;19923;-51
2022/06/02 01:15:35;;;;;;;;;;;;;;;9.05;72.73;100634.22;5136398;27;19931;-50
2022/06/02 01:18:07;;;;;;;;;;;;;;;9.05;72.60;100625.03;5136540;27;19923;-50
2022/06/02 01:20:43;;;;;;;;;;;;;;;9.08;72.69;100632.78;5131636;27;19930;-51
2022/06/02 01:23:31;;;;;;;;;;;;;;;9.07;72.30;100629.19;5136445;27;19931;-51
2022/06/02 01:26:16;;;;;;;;;;;;;;;9.03;72.44;100639.25;5136182;27;19927;-53
2022/06/02 01:28:48;;;;;;;;;;;;;;;8.95;72.84;100634.34;5076660;28;19924;-53
2022/06/02 01:31:28;;;;;;;;;;;;;;;8.93;72.98;100637.41;5116152;28;19931;-51
2022/06/02 01:34:00;;;;;;;;;;;;;;;8.98;72.79;100644.84;5115554;28;19924;-50
2022/06/02 01:36:32;;;;;;;;;;;;;;;8.97;73.04;100642.41;5133147;27;19927;-51
2022/06/02 01:39:16;;;;;;;;;;;;;;;8.99;72.61;100645.66;5136149;27;19924;-52
2022/06/02 01:41:52;;;;;;;;;;;;;;;8.90;73.32;100645.53;5135842;27;19930;-50
2022/06/02 01:44:21;;;;;;;;;;;;;;;8.88;73.16;100637.50;5135991;27;19923;-52
2022/06/02 01:46:53;;;;;;;;;;;;;;;8.87;73.88;100641.41;5135702;27;19924;-53
2022/06/02 01:49:27;;;;;;;;;;;;;;;8.92;72.78;100640.50;5133498;27;19928;-50
2022/06/02 01:52:00;;;;;;;;;;;;;;;8.87;73.39;100640.56;5135804;27;19924;-52
2022/06/02 01:54:33;;;;;;;;;;;;;;;8.88;73.15;100637.50;5135319;27;19927;-52
2022/06/02 01:57:06;;;;;;;;;;;;;;;8.82;73.60;100637.84;5119252;27;19924;-50
2022/06/02 01:59:40;;;;;;;;;;;;;;;8.85;73.01;100640.03;5115236;28;19931;-51
2022/06/02 02:02:15;;;;;;;;;;;;;;;8.80;73.34;100645.66;5114960;28;19928;-52
2022/06/02 02:04:51;;;;;;;;;;;;;;;8.83;72.85;100645.06;5121877;27;19931;-51
2022/06/02 02:07:27;;;;;;;;;;;;;;;8.79;73.06;100650.38;5134713;27;19931;-50
2022/06/02 02:09:59;;;;;;;;;;;;;;;8.78;72.98;100654.31;5134137;27;19931;-51
2022/06/02 02:12:33;;;;;;;;;;;;;;;8.73;73.41;100649.66;5135632;27;19945;-50
2022/06/02 02:15:18;;;;;;;;;;;;;;;8.69;73.03;100658.84;5135261;27;19931;-53
2022/06/02 02:17:54;;;;;;;;;;;;;;;8.66;73.59;100657.50;5135555;27;19924;-52
2022/06/02 02:20:26;;;;;;;;;;;;;;;8.70;73.31;100661.34;5129438;27;19924;-51
2022/06/02 02:23:01;;;;;;;;;;;;;;;8.67;72.49;100658.31;5135442;27;19930;-53
2022/06/02 02:25:32;;;;;;;;;;;;;;;8.67;72.49;100658.31;5135337;27;19927;-51
2022/06/02 02:28:03;;;;;;;;;;;;;;;8.59;72.23;100659.81;5122871;27;19923;-52
2022/06/02 02:30:35;;;;;;;;;;;;;;;8.57;72.73;100658.44;5114487;28;19923;-54
2022/06/02 02:33:08;;;;;;;;;;;;;;;8.54;72.42;100660.69;5114331;28;19924;-52
2022/06/02 02:35:39;;;;;;;;;;;;;;;8.51;72.44;100655.75;5133682;27;19930;-52
2022/06/02 02:38:09;;;;;;;;;;;;;;;8.45;72.61;100658.88;5134712;27;19989;-52
2022/06/02 02:40:40;;;;;;;;;;;;;;;8.40;73.46;100654.19;5134505;27;19924;-53
2022/06/02 02:43:14;;;;;;;;;;;;;;;8.42;73.05;100651.97;5134645;27;19933;-53
2022/06/02 02:45:46;;;;;;;;;;;;;;;8.38;73.36;100650.03;5135014;27;19924;-54
2022/06/02 02:48:24;;;;;;;;;;;;;;;8.38;73.13;100653.66;5132547;27;19932;-52
2022/06/02 02:50:54;;;;;;;;;;;;;;;8.25;73.50;100657.13;5134223;27;20320;-54
2022/06/02 02:53:24;;;;;;;;;;;;;;;8.23;73.00;100662.13;5134668;27;19923;-52
2022/06/02 02:55:55;;;;;;;;;;;;;;;8.25;73.12;100659.91;5134633;27;19923;-54
2022/06/02 02:58:25;;;;;;;;;;;;;;;8.29;72.52;100663.75;5122286;27;19930;-54
2022/06/02 03:00:59;;;;;;;;;;;;;;;8.23;72.97;100665.75;5113583;28;19924;-52
2022/06/02 03:03:32;;;;;;;;;;;;;;;8.20;72.59;100671.06;5119871;27;19930;-51
2022/06/02 03:06:06;;;;;;;;;;;;;;;8.16;72.54;100667.22;5133900;27;19931;-51
2022/06/02 03:08:38;;;;;;;;;;;;;;;8.15;72.37;100674.72;5134102;27;19930;-53
2022/06/02 03:11:12;;;;;;;;;;;;;;;8.09;73.26;100687.81;5134150;27;19923;-54
2022/06/02 03:13:43;;;;;;;;;;;;;;;8.08;73.38;100677.84;5132774;27;20311;-54
2022/06/02 03:16:15;;;;;;;;;;;;;;;8.10;72.96;100675.56;5133907;27;19928;-54
2022/06/02 03:18:53;;;;;;;;;;;;;;;8.11;72.89;100680.03;5130227;27;19927;-51
2022/06/02 03:21:26;;;;;;;;;;;;;;;8.09;73.21;100690.59;5134275;27;19932;-54
2022/06/02 03:24:08;;;;;;;;;;;;;;;8.04;73.11;100685.09;5133971;27;20395;-54
2022/06/02 03:26:42;;;;;;;;;;;;;;;8.01;72.83;100685.66;5133552;27;20402;-53
2022/06/02 03:29:13;;;;;;;;;;;;;;;8.01;73.53;100680.13;5113799;28;19924;-54
2022/06/02 03:31:47;;;;;;;;;;;;;;;8.03;73.02;100683.44;5113665;28;20019;-51
2022/06/02 03:34:22;;;;;;;;;;;;;;;8.08;72.79;100691.72;5121138;27;19924;-53
2022/06/02 03:37:03;;;;;;;;;;;;;;;8.08;73.19;100685.31;5133989;27;19923;-53
2022/06/02 03:39:34;;;;;;;;;;;;;;;8.09;73.26;100695.31;5133639;27;19931;-53
2022/06/02 03:42:07;;;;;;;;;;;;;;;8.10;72.95;100695.00;5133809;27;19923;-51
2022/06/02 03:44:42;;;;;;;;;;;;;;;8.09;72.75;100704.44;5133747;27;19938;-53
2022/06/02 03:47:16;;;;;;;;;;;;;;;8.12;72.48;100703.84;5133672;27;19930;-53
2022/06/02 03:49:57;;;;;;;;;;;;;;;8.11;72.49;100706.94;5129020;27;20272;-52
2022/06/02 03:52:37;;;;;;;;;;;;;;;8.13;72.50;100701.94;5116897;28;19923;-55
2022/06/02 03:55:09;;;;;;;;;;;;;;;8.18;73.04;100706.59;5133273;28;19930;-52
2022/06/02 03:57:48;;;;;;;;;;;;;;;8.22;73.05;100704.91;5128433;28;20284;-53
2022/06/02 04:00:19;;;;;;;;;;;;;;;8.20;72.86;100712.69;5112863;28;19924;-53
2022/06/02 04:02:51;;;;;;;;;;;;;;;8.25;72.32;100716.25;5113605;28;20372;-51
2022/06/02 04:05:31;;;;;;;;;;;;;;;8.21;73.08;100715.19;5129926;28;20295;-54
2022/06/02 04:08:08;;;;;;;;;;;;;;;8.32;72.38;100716.72;5133614;28;19923;-52
2022/06/02 04:10:38;;;;;;;;;;;;;;;8.34;72.59;100721.97;5133444;28;19930;-52
2022/06/02 04:16:14;;;;;;;;;;;;;;;8.51;71.82;100727.94;5097076;28;20376;-52
2022/06/02 04:18:48;;;;;;;;;;;;;;;8.49;71.70;100732.94;5130793;28;19950;-53
2022/06/02 04:21:21;;;;;;;;;;;;;;;8.50;72.17;100731.00;5133144;28;19946;-55
2022/06/02 04:23:58;;;;;;;;;;;;;;;8.50;72.19;100739.31;5133458;28;20273;-55
2022/06/02 04:26:45;;;;;;;;;;;;;;;8.48;72.11;100742.41;5133439;28;19933;-52
2022/06/02 04:29:26;;;;;;;;;;;;;;;8.46;72.75;100741.88;5105712;28;19923;-54
2022/06/02 04:31:58;;;;;;;;;;;;;;;8.57;72.78;100745.38;5116479;28;19931;-52
2022/06/02 04:34:31;;;;;;;;;;;;;;;8.68;73.05;100749.66;5128617;27;19923;-52
2022/06/02 04:37:01;;;;;;;;;;;;;;;8.76;73.13;100755.69;5117396;27;19923;-53
2022/06/02 04:39:33;;;;;;;;;;;;;;;8.92;73.67;100757.16;5116867;28;20406;-54
2022/06/02 04:42:06;;;;;;;;;;;;;;;9.10;72.90;100750.00;5114592;28;20300;-52
2022/06/02 04:44:39;;;;;;;;;;;;;;;9.20;72.42;100758.22;5116647;28;19924;-55
2022/06/02 04:47:11;;;;;;;;;;;;;;;9.32;72.80;100758.63;5122618;27;19950;-54
2022/06/02 04:49:41;;;;;;;;;;;;;;;9.41;72.58;100760.69;5103703;27;20300;-52
2022/06/02 04:52:20;;;;;;;;;;;;;;;9.50;72.67;100759.75;5099439;28;19930;-55
2022/06/02 04:54:52;;;;;;;;;;;;;;;9.60;72.26;100767.13;5109722;28;19924;-52
2022/06/02 04:57:24;;;;;;;;;;;;;;;9.70;72.09;100764.19;5098710;28;20295;-55
2022/06/02 04:59:57;;;;;;;;;;;;;;;9.84;71.49;100768.97;5098892;28;19935;-52
2022/06/02 05:02:30;;;;;;;;;;;;;;;9.86;71.33;100775.88;5113686;27;19939;-53
2022/06/02 05:05:05;;;;;;;;;;;;;;;10.01;71.25;100768.44;5101793;28;20300;-55
2022/06/02 05:07:38;;;;;;;;;;;;;;;9.98;71.47;100781.00;5096040;28;20364;-52
2022/06/02 05:10:12;;;;;;;;;;;;;;;10.15;71.19;100783.22;5095228;28;19924;-52
2022/06/02 05:12:46;;;;;;;;;;;;;;;10.21;71.07;100783.97;5103152;28;19923;-52
2022/06/02 05:15:20;;;;;;;;;;;;;;;10.25;71.06;100787.81;5114957;28;19924;-54
2022/06/02 05:18:03;;;;;;;;;;;;;;;10.28;71.08;100787.19;5103859;27;19939;-52
2022/06/02 05:20:40;;;;;;;;;;;;;;;10.34;71.10;100784.03;5110592;27;19924;-55
2022/06/02 05:23:25;;;;;;;;;;;;;;;10.38;71.00;100789.81;5128160;27;19923;-55
2022/06/02 05:26:10;;;;;;;;;;;;;;;10.52;70.92;100796.25;5104395;27;20591;-54
2022/06/02 05:28:52;;;;;;;;;;;;;;;10.61;70.25;100804.72;5125160;27;19923;-55
2022/06/02 05:31:33;;;;;;;;;;;;;;;10.77;70.67;100802.47;5133069;27;20295;-51
2022/06/02 05:34:28;;;;;;;;;;;;;;;10.87;70.08;100807.84;5132579;27;19923;-54
2022/06/02 05:37:10;;;;;;;;;;;;;;;10.94;70.08;100801.88;5127302;27;19923;-53
2022/06/02 05:39:43;;;;;;;;;;;;;;;11.02;69.77;100809.50;5108633;27;19923;-55
2022/06/02 05:42:22;;;;;;;;;;;;;;;11.09;69.63;100798.78;5135791;27;19923;-54
2022/06/02 05:44:55;;;;;;;;;;;;;;;11.20;69.48;100804.97;5133020;27;19924;-55
2022/06/02 05:47:27;;;;;;;;;;;;;;;11.27;69.47;100802.59;5121118;27;19930;-55
2022/06/02 05:50:03;;;;;;;;;;;;;;;11.41;69.29;100804.56;5115241;28;19924;-52
2022/06/02 05:52:34;;;;;;;;;;;;;;;11.47;68.91;100797.72;5114078;28;19931;-52
2022/06/02 05:55:16;;;;;;;;;;;;;;;11.65;68.79;100805.09;5108031;28;19928;-53
2022/06/02 05:57:47;;;;;;;;;;;;;;;11.74;69.04;100797.66;5114099;28;19931;-52
2022/06/02 06:00:20;;;;;;;;;;;;;;;11.87;69.06;100803.53;5114036;28;20402;-52
2022/06/02 06:03:14;;;;;;;;;;;;;;;11.94;68.79;100801.13;5113467;28;19928;-52
2022/06/02 06:05:46;;;;;;;;;;;;;;;12.00;68.80;100802.66;5113959;28;20368;-52
2022/06/02 06:08:17;;;;;;;;;;;;;;;12.10;68.44;100799.63;5110286;28;19931;-56
2022/06/02 06:10:52;;;;;;;;;;;;;;;12.27;68.64;100798.13;5099962;28;20411;-57
2022/06/02 06:13:44;;;;;;;;;;;;;;;12.39;68.26;100796.41;5108280;27;19928;-54
2022/06/02 06:16:14;;;;;;;;;;;;;;;12.42;68.15;100789.34;5097708;28;19938;-57
2022/06/02 06:18:47;;;;;;;;;;;;;;;12.56;67.99;100800.44;5127958;27;19931;-57
2022/06/02 06:21:23;;;;;;;;;;;;;;;12.68;67.93;100799.84;5116322;27;19924;-56
2022/06/02 06:24:04;;;;;;;;;;;;;;;12.85;68.00;100799.94;5106737;28;19935;-55
2022/06/02 06:26:36;;;;;;;;;;;;;;;12.95;67.36;100796.03;5100408;27;20291;-53
2022/06/02 06:29:13;;;;;;;;;;;;;;;13.04;67.08;100791.31;5110166;28;19932;-56
2022/06/02 06:31:47;;;;;;;;;;;;;;;13.22;67.19;100802.53;5093622;27;19931;-55
2022/06/02 06:34:19;;;;;;;;;;;;;;;13.32;66.71;100805.06;5092391;28;19924;-55
2022/06/02 06:37:07;;;;;;;;;;;;;;;13.47;66.84;100801.00;5111029;28;19927;-54
2022/06/02 06:39:43;;;;;;;;;;;;;;;13.44;66.01;100807.22;5106672;28;19924;-55
2022/06/02 06:42:18;;;;;;;;;;;;;;;13.56;66.47;100804.63;5113640;27;19925;-55
2022/06/02 06:44:47;;;;;;;;;;;;;;;13.66;66.32;100809.91;5102050;27;19924;-56
2022/06/02 06:47:16;;;;;;;;;;;;;;;13.73;66.57;100801.03;5113094;27;20383;-54
2022/06/02 06:49:53;;;;;;;;;;;;;;;13.86;66.18;100808.47;5133301;27;20380;-55
2022/06/02 06:52:41;;;;;;;;;;;;;;;14.06;66.42;100806.97;5120479;27;20291;-55
2022/06/02 06:55:15;;;;;;;;;;;;;;;14.17;66.86;100802.69;5070064;28;19932;-54
2022/06/02 06:57:50;;;;;;;;;;;;;;;14.38;66.41;100802.00;5074327;28;20308;-55
2022/06/02 07:00:19;;;;;;;;;;;;;;;14.52;65.67;100805.44;5112676;28;19934;-54
2022/06/02 07:02:55;;;;;;;;;;;;;;;14.65;64.73;100805.59;5110623;28;19927;-54
2022/06/02 07:05:26;;;;;;;;;;;;;;;14.79;63.37;100809.03;5094024;28;19939;-54
2022/06/02 07:08:06;;;;;;;;;;;;;;;14.95;63.37;100812.94;5072721;28;19925;-54
2022/06/02 07:10:36;;;;;;;;;;;;;;;15.17;62.64;100814.66;5074863;28;20412;-54
2022/06/02 07:13:10;;;;;;;;;;;;;;;15.20;62.55;100811.19;5072974;28;19928;-55
2022/06/02 07:15:44;;;;;;;;;;;;;;;15.28;61.12;100817.06;5085265;28;20304;-55
2022/06/02 07:18:16;;;;;;;;;;;;;;;15.42;61.15;100812.06;5100023;28;20285;-55
2022/06/02 07:20:49;;;;;;;;;;;;;;;15.48;58.89;100819.13;5097429;28;19928;-56
2022/06/02 07:23:19;;;;;;;;;;;;;;;15.65;59.26;100823.00;5090746;28;19924;-55
2022/06/02 07:25:54;;;;;;;;;;;;;;;15.76;58.51;100833.50;5103575;28;19924;-56
2022/06/02 07:28:26;;;;;;;;;;;;;;;15.88;57.60;100832.75;5086870;28;19924;-55
2022/06/02 07:30:57;;;;;;;;;;;;;;;16.16;56.58;100830.22;5075758;28;19929;-55
2022/06/02 07:33:29;;;;;;;;;;;;;;;16.42;55.54;100846.03;5084182;28;19931;-53
2022/06/02 07:36:14;;;;;;;;;;;;;;;16.64;54.82;100839.22;5096133;28;19932;-54
2022/06/02 07:38:52;;;;;;;;;;;;;;;16.91;54.61;100853.84;5071533;28;19928;-56
2022/06/02 07:41:31;;;;;;;;;;;;;;;16.91;52.90;100851.84;5081842;28;19931;-53
2022/06/02 07:44:12;;;;;;;;;;;;;;;17.03;52.95;100846.25;5085906;28;19926;-55
2022/06/02 07:46:49;;;;;;;;;;;;;;;17.35;52.86;100840.88;5076046;28;20369;-56
2022/06/02 07:49:31;;;;;;;;;;;;;;;17.65;50.57;100843.44;5072256;28;19932;-56
2022/06/02 07:52:02;;;;;;;;;;;;;;;18.60;48.62;100852.38;5081963;28;19925;-55
2022/06/02 07:54:36;;;;;;;;;;;;;;;19.54;46.52;100846.38;5093568;28;19924;-55
2022/06/02 07:57:12;;;;;;;;;;;;;;;20.77;43.26;100845.88;5102496;28;20045;-53
2022/06/02 07:59:47;;;;;;;;;;;;;;;21.94;42.36;100844.59;5104719;28;20300;-56
2022/06/02 08:02:25;;;;;;;;;;;;;;;22.56;38.72;100839.38;5111779;28;19931;-54
2022/06/02 08:04:58;;;;;;;;;;;;;;;22.92;36.48;100847.47;5109596;27;19931;-53
2022/06/02 08:07:27;;;;;;;;;;;;;;;23.95;36.13;100838.22;5136468;27;19934;-55
2022/06/02 08:10:02;;;;;;;;;;;;;;;24.98;35.73;100843.50;5115217;27;19928;-55
2022/06/02 08:12:35;;;;;;;;;;;;;;;25.78;32.62;100842.31;5095563;28;20291;-55
2022/06/02 08:15:16;;;;;;;;;;;;;;;26.54;31.52;100842.91;5113609;28;19924;-53
2022/06/02 08:17:47;;;;;;;;;;;;;;;27.76;31.67;100842.09;5096810;28;19924;-55
2022/06/02 08:20:26;;;;;;;;;;;;;;;28.72;29.45;100833.63;5114327;27;19924;-56
2022/06/02 08:22:58;;;;;;;;;;;;;;;29.79;27.61;100839.72;5121157;27;19931;-56
2022/06/02 08:25:27;;;;;;;;;;;;;;;30.69;26.07;100838.72;5114151;27;19932;-55
2022/06/02 08:28:14;;;;;;;;;;;;;;;31.38;24.16;100835.06;5130863;27;19935;-56
2022/06/02 08:30:46;;;;;;;;;;;;;;;30.18;25.23;100840.22;5107619;27;19927;-54
2022/06/02 08:33:30;;;;;;;;;;;;;;;29.32;26.29;100831.09;5118467;27;19924;-55
2022/06/02 08:36:03;;;;;;;;;;;;;;;28.52;27.26;100837.16;5105067;27;19931;-54
2022/06/02 08:38:40;;;;;;;;;;;;;;;27.53;28.25;100840.66;5126320;27;21088;-56
2022/06/02 08:41:31;;;;;;;;;;;;;;;26.51;30.25;100856.00;5107837;27;20376;-56
2022/06/02 08:44:19;;;;;;;;;;;;;;;26.03;31.00;100847.19;5097727;28;19932;-56
2022/06/02 08:47:01;;;;;;;;;;;;;;;25.47;31.49;100843.97;5102833;27;19930;-53
2022/06/02 08:49:49;;;;;;;;;;;;;;;24.85;32.71;100850.81;5107116;28;20304;-56
2022/06/02 08:52:31;;;;;;;;;;;;;;;24.47;33.68;100856.78;5115719;27;19928;-56
2022/06/02 08:55:15;;;;;;;;;;;;;;;23.97;34.00;100850.81;5113566;28;19924;-56
2022/06/02 08:58:12;;;;;;;;;;;;;;;23.45;35.28;100859.34;5115190;27;19923;-54
2022/06/02 09:00:56;;;;;;;;;;;;;;;23.27;35.97;100858.41;5057538;28;19925;-53
2022/06/02 09:03:57;;;;;;;;;;;;;;;23.12;36.29;100856.63;5089021;28;19926;-55
2022/06/02 09:06:54;;;;;;;;;;;;;;;22.82;36.41;100863.19;5129372;27;19930;-55
2022/06/02 09:09:37;;;;;;;;;;;;;;;22.77;36.53;100857.88;5012002;28;19926;-53
2022/06/02 09:12:22;;;;;;;;;;;;;;;24.46;34.99;100855.16;5093207;27;19927;-56
2022/06/02 09:15:13;;;;;;;;;;;;;;;26.66;30.41;100851.06;5130323;27;19930;-56
2022/06/02 09:17:45;;;;;;;;;;;;;;;29.31;28.55;100843.81;5110070;27;20298;-57
2022/06/02 09:20:22;;;;;;;;;;;;;;;30.94;26.49;100846.00;5098403;28;20303;-54
2022/06/02 09:22:52;;;;;;;;;;;;;;;32.92;24.22;100841.47;5118918;27;19927;-56
2022/06/02 09:25:29;;;;;;;;;;;;;;;34.96;20.75;100844.94;5135080;27;19923;-54
2022/06/02 09:28:07;;;;;;;;;;;;;;;36.07;19.43;100846.03;5116824;27;20387;-56
2022/06/02 09:30:42;;;;;;;;;;;;;;;37.46;18.08;100836.97;5116418;27;19928;-57
2022/06/02 09:36:11;;;;;;;;;;;;;;;39.50;16.54;100840.28;5119763;27;19928;-57
2022/06/02 09:38:49;;;;;;;;;;;;;;;40.15;15.27;100836.31;5117562;27;20368;-56
2022/06/02 09:41:33;;;;;;;;;;;;;;;41.69;14.35;100834.19;5113297;27;19931;-56
2022/06/02 09:44:05;;;;;;;;;;;;;;;40.86;14.17;100833.06;5123832;27;20395;-56
2022/06/02 09:46:51;;;;;;;;;;;;;;;39.21;13.05;100838.25;5103693;28;19928;-57
2022/06/02 09:49:32;;;;;;;;;;;;;;;40.52;14.12;100842.31;5118289;27;20351;-57
2022/06/02 09:52:03;;;;;;;;;;;;;;;42.34;12.87;100842.13;5134786;27;19927;-53
2022/06/02 09:54:53;;;;;;;;;;;;;;;43.06;12.29;100837.66;5107493;27;19924;-56
2022/06/02 10:00:20;;;;;;;;;;;;;;;38.08;15.76;100855.78;5128854;27;19928;-56
2022/06/02 10:02:53;;;;;;;;;;;;;;;36.33;17.47;100861.06;5118114;27;19932;-54
2022/06/02 10:05:26;;;;;;;;;;;;;;;35.62;18.98;100870.00;5109787;27;20390;-55
2022/06/02 10:08:02;;;;;;;;;;;;;;;34.54;18.91;100854.84;5117241;27;19924;-55
2022/06/02 10:10:44;;;;;;;;;;;;;;;33.64;19.66;100862.25;5101616;27;20403;-56
2022/06/02 10:13:30;;;;;;;;;;;;;;;33.91;19.71;100859.63;5092026;28;19931;-55
2022/06/02 10:16:17;;;;;;;;;;;;;;;32.85;20.26;100859.81;5112332;27;19939;-53
2022/06/02 10:18:53;;;;;;;;;;;;;;;31.68;21.68;100856.94;5102387;27;19928;-55
2022/06/02 10:21:27;;;;;;;;;;;;;;;31.06;22.20;100853.13;5118282;27;20261;-55
2022/06/02 10:24:05;;;;;;;;;;;;;;;30.25;23.19;100855.25;5100979;28;19934;-53
2022/06/02 10:26:38;;;;;;;;;;;;;;;29.73;23.70;100864.44;5117770;27;19928;-55
2022/06/02 10:29:21;;;;;;;;;;;;;;;29.58;23.89;100848.69;5104528;28;20296;-55
2022/06/02 10:32:01;;;;;;;;;;;;;;;30.83;22.91;100854.06;5092931;28;19924;-56
2022/06/02 10:34:43;;;;;;;;;;;;;;;32.04;20.99;100852.31;5092838;28;19924;-56
2022/06/02 10:37:16;;;;;;;;;;;;;;;33.68;19.77;100855.09;5101626;27;19934;-56
2022/06/02 10:40:04;;;;;;;;;;;;;;;35.17;19.07;100852.81;5120513;27;19923;-55
2022/06/02 10:42:49;;;;;;;;;;;;;;;36.90;17.42;100848.06;5123795;27;19927;-56
2022/06/02 10:45:28;;;;;;;;;;;;;;;38.66;15.92;100839.72;5118701;27;19938;-56
2022/06/02 10:48:15;;;;;;;;;;;;;;;39.31;14.74;100841.81;5092870;28;19935;-56
2022/06/02 10:50:50;;;;;;;;;;;;;;;39.97;14.26;100846.22;5098041;27;19928;-55
2022/06/02 10:53:41;;;;;;;;;;;;;;;40.92;13.88;100836.84;5091973;28;19924;-55
2022/06/02 10:56:29;;;;;;;;;;;;;;;41.34;13.19;100830.22;5114982;27;19945;-53
2022/06/02 10:59:08;;;;;;;;;;;;;;;41.86;13.20;100831.31;5134774;27;20036;-56
2022/06/02 11:02:02;;;;;;;;;;;;;;;42.69;12.44;100826.19;5123045;27;19923;-54
2022/06/02 11:04:47;;;;;;;;;;;;;;;43.59;11.51;100826.06;5133572;27;19923;-54
2022/06/02 11:07:40;;;;;;;;;;;;;;;43.22;11.80;100821.38;5134135;27;19930;-56
2022/06/02 11:10:23;;;;;;;;;;;;;;;43.09;11.76;100829.91;5106975;27;19931;-56
2022/06/02 11:13:08;;;;;;;;;;;;;;;43.04;11.97;100824.88;5134251;27;19924;-55
2022/06/02 11:15:48;;;;;;;;;;;;;;;42.93;11.11;100822.75;5111821;27;19931;-56
2022/06/02 11:18:30;;;;;;;;;;;;;;;42.43;11.90;100817.66;5127884;27;19924;-56
2022/06/02 11:21:09;;;;;;;;;;;;;;;42.91;11.99;100808.63;5123406;27;19939;-56
2022/06/02 11:23:47;;;;;;;;;;;;;;;43.03;11.42;100803.56;5093726;27;19938;-57
2022/06/02 11:26:30;;;;;;;;;;;;;;;43.46;11.72;100806.13;5107695;27;19931;-56
2022/06/02 11:29:15;;;;;;;;;;;;;;;43.67;11.26;100805.81;5117156;27;19935;-57
2022/06/02 11:31:51;;;;;;;;;;;;;;;44.35;10.43;100795.28;5092629;27;19935;-54
2022/06/02 11:34:26;;;;;;;;;;;;;;;44.44;10.97;100793.31;5108472;27;19931;-56
2022/06/02 11:37:23;;;;;;;;;;;;;;;44.78;9.66;100794.66;5099420;28;19927;-56
2022/06/02 11:40:02;;;;;;;;;;;;;;;43.61;10.20;100794.03;5050813;28;19924;-57
2022/06/02 11:42:41;;;;;;;;;;;;;;;43.79;10.62;100792.66;5103996;27;20303;-54
2022/06/02 11:45:12;;;;;;;;;;;;;;;43.10;10.89;100782.47;5092159;28;19924;-56
2022/06/02 11:47:50;;;;;;;;;;;;;;;42.80;11.70;100782.25;5104506;27;19934;-56
2022/06/02 11:50:34;;;;;;;;;;;;;;;42.44;10.87;100775.31;5116476;28;19931;-55
2022/06/02 11:53:31;;;;;;;;;;;;;;;41.61;10.96;100775.38;5120307;28;19927;-57
2022/06/02 11:56:02;;;;;;;;;;;;;;;41.80;11.31;100774.91;5047599;28;20666;-57
2022/06/02 11:58:38;;;;;;;;;;;;;;;41.81;12.06;100774.34;5104383;28;19930;-56
2022/06/02 12:01:23;;;;;;;;;;;;;;;41.99;11.65;100776.00;5115844;28;19924;-56
2022/06/02 12:04:13;;;;;;;;;;;;;;;41.62;11.44;100776.94;5124036;28;19924;-55
2022/06/02 12:07:01;;;;;;;;;;;;;;;42.12;11.44;100784.31;5028160;28;20385;-56
2022/06/02 12:09:42;;;;;;;;;;;;;;;42.50;11.45;100784.91;5104026;28;19923;-56
2022/06/02 12:12:30;;;;;;;;;;;;;;;42.78;10.18;100776.91;5119957;28;19924;-55
2022/06/02 12:15:08;;;;;;;;;;;;;;;42.34;10.75;100778.50;5102722;28;19931;-54
2022/06/02 12:17:44;;;;;;;;;;;;;;;42.58;11.01;100775.03;5094171;28;19935;-56
2022/06/02 12:20:26;;;;;;;;;;;;;;;42.61;10.51;100784.94;5096012;28;19927;-55
2022/06/02 12:23:09;;;;;;;;;;;;;;;42.44;10.81;100787.03;5122062;28;20291;-56
2022/06/02 12:25:55;;;;;;;;;;;;;;;42.42;11.38;100777.94;5098600;28;19924;-54
2022/06/02 12:28:35;;;;;;;;;;;;;;;41.20;11.46;100777.78;5122462;28;19934;-55
2022/06/02 12:31:24;;;;;;;;;;;;;;;39.76;12.15;100784.13;5131359;28;20295;-56
2022/06/02 12:34:06;;;;;;;;;;;;;;;37.04;14.20;100786.34;5104761;28;19928;-54
2022/06/02 12:36:51;;;;;;;;;;;;;;;36.45;14.58;100780.91;5108989;28;19982;-56
2022/06/02 12:39:32;;;;;;;;;;;;;;;36.99;14.38;100781.22;5129050;28;19927;-54
2022/06/02 12:42:24;;;;;;;;;;;;;;;36.81;15.71;100781.28;5090762;28;20273;-55
2022/06/02 12:45:09;;;;;;;;;;;;;;;36.76;14.03;100780.66;5110638;28;19923;-56
2022/06/02 12:47:46;;;;;;;;;;;;;;;36.74;14.41;100768.72;5103331;28;20389;-56
2022/06/02 12:50:19;;;;;;;;;;;;;;;36.28;15.26;100774.66;5112675;28;19943;-55
2022/06/02 12:53:10;;;;;;;;;;;;;;;35.93;15.20;100769.22;5117130;27;19939;-54
2022/06/02 12:56:01;;;;;;;;;;;;;;;35.91;15.88;100768.09;5076542;28;20293;-52
2022/06/02 12:58:52;;;;;;;;;;;;;;;35.98;14.91;100771.47;5081589;28;19924;-55
2022/06/02 13:01:33;;;;;;;;;;;;;;;35.39;16.23;100767.91;5048285;28;19924;-55
2022/06/02 13:04:23;;;;;;;;;;;;;;;35.57;16.43;100761.28;5074982;28;19928;-55
2022/06/02 13:07:08;;;;;;;;;;;;;;;35.53;16.30;100773.06;5066510;28;19943;-52
2022/06/02 13:09:56;;;;;;;;;;;;;;;34.57;16.65;100761.31;5073124;28;19924;-54
2022/06/02 13:12:40;;;;;;;;;;;;;;;34.54;17.83;100767.22;5020743;28;20416;-55
2022/06/02 13:15:21;;;;;;;;;;;;;;;34.12;17.40;100764.72;5081471;28;19929;-54
2022/06/02 13:18:15;;;;;;;;;;;;;;;34.22;16.98;100754.84;5074242;28;19929;-55
2022/06/02 13:21:10;;;;;;;;;;;;;;;33.83;17.85;100757.13;5060607;28;19924;-53
2022/06/02 13:23:55;;;;;;;;;;;;;;;33.35;19.77;100762.94;5072911;28;19935;-54
2022/06/02 13:26:46;;;;;;;;;;;;;;;32.71;18.30;100757.22;5062990;28;19924;-53
2022/06/02 13:29:34;;;;;;;;;;;;;;;32.85;17.90;100755.94;5033107;28;19925;-53
2022/06/02 13:32:14;;;;;;;;;;;;;;;32.51;19.52;100742.19;5075336;28;19925;-54
2022/06/02 13:35:00;;;;;;;;;;;;;;;32.45;19.36;100744.03;5074671;28;19924;-55
2022/06/02 13:37:44;;;;;;;;;;;;;;;32.07;18.88;100741.91;5075280;28;20096;-55
2022/06/02 13:40:20;;;;;;;;;;;;;;;32.06;20.04;100746.03;5074201;28;19924;-54
2022/06/02 13:43:20;;;;;;;;;;;;;;;31.97;20.03;100746.69;5075718;28;19932;-52
2022/06/02 13:46:05;;;;;;;;;;;;;;;31.84;19.95;100751.59;5075505;28;19933;-52